createdAt,value
2023-04-09T00:00:35.760Z,22.04
2023-04-09T00:01:35.798Z,21.99
2023-04-09T00:02:35.787Z,22.07
2023-04-09T00:03:35.944Z,22.10
2023-04-09T00:04:35.843Z,22.12
2023-04-09T00:05:35.766Z,22.02
2023-04-09T00:06:35.770Z,22.01
2023-04-09T00:07:35.770Z,22.04
2023-04-09T00:08:35.776Z,22.02
2023-04-09T00:09:35.774Z,22.07
2023-04-09T00:10:35.810Z,22.06
2023-04-09T00:11:35.780Z,22.04
2023-04-09T00:12:35.777Z,21.99
2023-04-09T00:13:39.525Z,22.09
2023-04-09T00:14:35.788Z,21.95
2023-04-09T00:15:35.787Z,21.94
2023-04-09T00:16:35.835Z,21.91
2023-04-09T00:17:35.797Z,21.98
2023-04-09T00:18:35.790Z,22.09
2023-04-09T00:19:35.795Z,21.99
2023-04-09T00:20:35.796Z,21.97
2023-04-09T00:21:35.796Z,22.07
2023-04-09T00:22:35.800Z,22.10
2023-04-09T00:23:35.810Z,22.07
2023-04-09T00:24:35.811Z,22.01
2023-04-09T00:25:35.806Z,21.94
2023-04-09T00:26:35.844Z,21.98
2023-04-09T00:27:35.806Z,21.97
2023-04-09T00:28:35.813Z,21.92
2023-04-09T00:29:35.816Z,21.95
2023-04-09T00:30:35.817Z,22.04
2023-04-09T00:31:35.838Z,21.95
2023-04-09T00:32:35.843Z,22.09
2023-04-09T00:33:35.823Z,22.02
2023-04-09T00:34:35.825Z,22.06
2023-04-09T00:35:35.852Z,22.02
2023-04-09T00:36:35.829Z,21.98
2023-04-09T00:37:35.830Z,22.02
2023-04-09T00:38:35.836Z,22.06
2023-04-09T00:39:35.835Z,22.07
2023-04-09T00:40:35.839Z,22.06
2023-04-09T00:41:35.838Z,22.07
2023-04-09T00:42:35.869Z,22.09
2023-04-09T00:43:35.840Z,22.02
2023-04-09T00:44:35.877Z,22.04
2023-04-09T00:45:35.942Z,22.04
2023-04-09T00:46:35.846Z,22.04
2023-04-09T00:47:35.941Z,22.09
2023-04-09T00:48:35.861Z,21.97
2023-04-09T00:49:35.857Z,21.98
2023-04-09T00:50:35.861Z,22.06
2023-04-09T00:51:35.857Z,22.10
2023-04-09T00:52:35.867Z,22.02
2023-04-09T00:53:35.866Z,22.04
2023-04-09T00:54:35.870Z,22.02
2023-04-09T00:55:35.870Z,21.99
2023-04-09T00:56:35.877Z,22.09
2023-04-09T00:57:35.870Z,21.99
2023-04-09T00:58:35.920Z,22.02
2023-04-09T00:59:35.871Z,22.02
2023-04-09T01:00:35.881Z,22.06
2023-04-09T01:01:36.169Z,22.06
2023-04-09T01:02:36.058Z,22.07
2023-04-09T01:03:36.085Z,22.10
2023-04-09T01:04:35.890Z,22.01
2023-04-09T01:05:35.887Z,22.02
2023-04-09T01:06:35.884Z,22.04
2023-04-09T01:07:35.895Z,21.94
2023-04-09T01:08:35.893Z,21.97
2023-04-09T01:09:35.889Z,21.92
2023-04-09T01:10:35.909Z,21.98
2023-04-09T01:11:36.004Z,21.92
2023-04-09T01:12:35.904Z,21.95
2023-04-09T01:13:35.894Z,22.06
2023-04-09T01:14:35.927Z,22.07
2023-04-09T01:15:35.896Z,21.99
2023-04-09T01:16:35.964Z,21.94
2023-04-09T01:17:35.945Z,21.95
2023-04-09T01:18:35.911Z,21.94
2023-04-09T01:19:35.907Z,22.02
2023-04-09T01:20:35.913Z,21.94
2023-04-09T01:21:35.911Z,21.95
2023-04-09T01:22:35.918Z,21.99
2023-04-09T01:23:35.916Z,22.04
2023-04-09T01:24:35.929Z,22.01
2023-04-09T01:25:35.925Z,22.02
2023-04-09T01:26:35.925Z,22.02
2023-04-09T01:27:35.922Z,21.94
2023-04-09T01:28:35.932Z,22.07
2023-04-09T01:29:35.933Z,21.98
2023-04-09T01:30:35.998Z,22.09
2023-04-09T01:31:35.933Z,22.01
2023-04-09T01:32:35.960Z,21.98
2023-04-09T01:33:35.935Z,21.94
2023-04-09T01:34:35.940Z,21.97
2023-04-09T01:35:35.961Z,21.98
2023-04-09T01:36:35.940Z,21.95
2023-04-09T01:37:35.941Z,21.95
2023-04-09T01:38:35.945Z,21.98
2023-04-09T01:39:35.943Z,21.98
2023-04-09T01:40:35.951Z,21.94
2023-04-09T01:41:35.951Z,21.94
2023-04-09T01:42:35.958Z,21.98
2023-04-09T01:43:35.954Z,21.98
2023-04-09T01:44:35.961Z,21.94
2023-04-09T01:45:35.964Z,21.97
2023-04-09T01:46:36.078Z,21.98
2023-04-09T01:47:35.972Z,21.92
2023-04-09T01:48:35.965Z,22.02
2023-04-09T01:49:35.969Z,21.94
2023-04-09T01:50:35.975Z,21.91
2023-04-09T01:51:35.985Z,21.91
2023-04-09T01:52:35.987Z,21.98
2023-04-09T01:53:35.974Z,21.97
2023-04-09T01:54:35.985Z,21.97
2023-04-09T01:55:35.983Z,21.88
2023-04-09T01:56:35.983Z,21.98
2023-04-09T01:57:35.988Z,21.98
2023-04-09T01:58:35.981Z,21.97
2023-04-09T01:59:35.990Z,21.94
2023-04-09T02:00:35.991Z,21.95
2023-04-09T02:01:36.097Z,21.85
2023-04-09T02:02:36.113Z,21.97
2023-04-09T02:03:36.051Z,21.82
2023-04-09T02:04:35.993Z,21.83
2023-04-09T02:05:36.001Z,22.01
2023-04-09T02:06:36.003Z,21.90
2023-04-09T02:07:36.004Z,22.01
2023-04-09T02:08:36.009Z,21.95
2023-04-09T02:09:36.009Z,21.98
2023-04-09T02:10:36.009Z,21.90
2023-04-09T02:11:36.007Z,21.94
2023-04-09T02:12:36.012Z,21.94
2023-04-09T02:13:36.022Z,21.94
2023-04-09T02:14:36.017Z,21.83
2023-04-09T02:15:36.030Z,21.92
2023-04-09T02:16:36.021Z,21.91
2023-04-09T02:17:36.048Z,21.90
2023-04-09T02:18:36.045Z,21.92
2023-04-09T02:19:36.036Z,21.97
2023-04-09T02:20:36.024Z,21.85
2023-04-09T02:21:36.028Z,21.91
2023-04-09T02:22:36.045Z,21.99
2023-04-09T02:23:36.031Z,21.95
2023-04-09T02:24:36.040Z,21.92
2023-04-09T02:25:36.035Z,21.90
2023-04-09T02:26:36.045Z,21.91
2023-04-09T02:27:36.042Z,21.94
2023-04-09T02:28:36.049Z,21.90
2023-04-09T02:29:36.050Z,21.95
2023-04-09T02:30:36.044Z,21.92
2023-04-09T02:31:36.264Z,21.90
2023-04-09T02:32:36.068Z,21.99
2023-04-09T02:33:36.053Z,21.91
2023-04-09T02:34:36.078Z,21.88
2023-04-09T02:35:36.414Z,21.88
2023-04-09T02:36:36.062Z,21.88
2023-04-09T02:37:36.063Z,21.83
2023-04-09T02:38:36.063Z,21.91
2023-04-09T02:39:36.063Z,21.82
2023-04-09T02:40:36.064Z,21.88
2023-04-09T02:41:36.070Z,21.83
2023-04-09T02:42:36.069Z,21.82
2023-04-09T02:43:36.070Z,21.91
2023-04-09T02:44:36.074Z,21.92
2023-04-09T02:45:36.079Z,21.83
2023-04-09T02:46:36.107Z,21.90
2023-04-09T02:47:36.097Z,21.92
2023-04-09T02:48:36.082Z,21.92
2023-04-09T02:49:36.087Z,21.82
2023-04-09T02:50:36.110Z,21.83
2023-04-09T02:51:36.108Z,21.82
2023-04-09T02:52:36.089Z,21.97
2023-04-09T02:53:36.094Z,21.83
2023-04-09T02:54:36.093Z,21.83
2023-04-09T02:55:36.096Z,21.79
2023-04-09T02:56:36.114Z,21.83
2023-04-09T02:57:36.106Z,21.81
2023-04-09T02:58:36.105Z,21.88
2023-04-09T02:59:36.122Z,21.91
2023-04-09T03:00:36.110Z,21.92
2023-04-09T03:01:36.159Z,21.94
2023-04-09T03:02:36.257Z,21.98
2023-04-09T03:03:36.225Z,21.82
2023-04-09T03:04:36.119Z,21.92
2023-04-09T03:05:36.120Z,21.92
2023-04-09T03:06:36.147Z,21.90
2023-04-09T03:07:36.122Z,21.95
2023-04-09T03:08:36.128Z,21.90
2023-04-09T03:09:36.125Z,21.97
2023-04-09T03:10:36.123Z,21.95
2023-04-09T03:11:36.130Z,21.92
2023-04-09T03:12:36.136Z,21.95
2023-04-09T03:13:36.134Z,21.83
2023-04-09T03:14:36.141Z,21.97
2023-04-09T03:15:36.163Z,21.90
2023-04-09T03:16:36.137Z,21.91
2023-04-09T03:17:36.163Z,21.98
2023-04-09T03:18:36.144Z,21.95
2023-04-09T03:19:36.141Z,21.91
2023-04-09T03:20:36.146Z,21.92
2023-04-09T03:21:36.144Z,21.94
2023-04-09T03:22:36.404Z,21.91
2023-04-09T03:23:36.150Z,21.95
2023-04-09T03:24:36.153Z,21.99
2023-04-09T03:25:36.161Z,21.91
2023-04-09T03:26:36.170Z,21.92
2023-04-09T03:27:36.158Z,21.92
2023-04-09T03:28:36.314Z,21.91
2023-04-09T03:29:36.160Z,21.83
2023-04-09T03:30:36.168Z,21.85
2023-04-09T03:31:36.222Z,21.83
2023-04-09T03:32:36.189Z,21.78
2023-04-09T03:33:36.498Z,21.83
2023-04-09T03:34:36.177Z,21.91
2023-04-09T03:35:36.214Z,21.88
2023-04-09T03:36:36.173Z,21.90
2023-04-09T03:37:36.179Z,21.98
2023-04-09T03:38:36.204Z,21.92
2023-04-09T03:39:36.184Z,21.95
2023-04-09T03:40:36.182Z,21.88
2023-04-09T03:41:36.183Z,21.92
2023-04-09T03:42:36.190Z,21.90
2023-04-09T03:43:36.185Z,21.97
2023-04-09T03:44:36.197Z,21.88
2023-04-09T03:45:36.191Z,21.82
2023-04-09T03:46:36.468Z,21.85
2023-04-09T03:47:36.235Z,21.90
2023-04-09T03:48:36.194Z,21.98
2023-04-09T03:49:36.201Z,21.88
2023-04-09T03:50:36.203Z,21.85
2023-04-09T03:51:36.254Z,21.91
2023-04-09T03:52:36.204Z,21.83
2023-04-09T03:53:36.208Z,21.82
2023-04-09T03:54:36.238Z,21.95
2023-04-09T03:55:36.209Z,21.82
2023-04-09T03:56:36.231Z,21.81
2023-04-09T03:57:36.217Z,21.82
2023-04-09T03:58:36.212Z,21.79
2023-04-09T03:59:36.214Z,21.88
2023-04-09T04:00:36.218Z,21.82
2023-04-09T04:01:36.315Z,21.88
2023-04-09T04:02:36.367Z,21.91
2023-04-09T04:03:36.379Z,22.01
2023-04-09T04:04:36.246Z,21.97
2023-04-09T04:05:36.228Z,21.92
2023-04-09T04:06:36.225Z,21.92
2023-04-09T04:07:36.233Z,21.92
2023-04-09T04:08:36.236Z,21.95
2023-04-09T04:09:36.244Z,21.94
2023-04-09T04:10:36.272Z,21.85
2023-04-09T04:11:36.241Z,21.91
2023-04-09T04:12:36.236Z,21.85
2023-04-09T04:13:36.245Z,21.90
2023-04-09T04:14:36.245Z,21.99
2023-04-09T04:15:36.242Z,21.82
2023-04-09T04:16:36.326Z,21.82
2023-04-09T04:17:36.311Z,21.92
2023-04-09T04:18:36.251Z,21.92
2023-04-09T04:19:36.255Z,21.95
2023-04-09T04:20:36.255Z,21.90
2023-04-09T04:21:36.253Z,21.92
2023-04-09T04:22:36.252Z,21.94
2023-04-09T04:23:36.256Z,21.94
2023-04-09T04:24:36.257Z,21.92
2023-04-09T04:25:36.269Z,21.88
2023-04-09T04:26:36.441Z,21.92
2023-04-09T04:27:36.283Z,21.79
2023-04-09T04:28:36.267Z,21.90
2023-04-09T04:29:36.270Z,21.82
2023-04-09T04:30:36.270Z,21.82
2023-04-09T04:31:36.305Z,21.82
2023-04-09T04:32:36.268Z,21.83
2023-04-09T04:33:36.277Z,21.94
2023-04-09T04:34:36.278Z,21.90
2023-04-09T04:35:36.314Z,21.79
2023-04-09T04:36:36.280Z,21.82
2023-04-09T04:37:36.288Z,21.81
2023-04-09T04:38:36.295Z,21.83
2023-04-09T04:39:36.298Z,21.82
2023-04-09T04:40:36.293Z,21.92
2023-04-09T04:41:36.287Z,21.88
2023-04-09T04:42:36.315Z,21.91
2023-04-09T04:43:36.308Z,21.85
2023-04-09T04:44:36.294Z,21.81
2023-04-09T04:45:36.317Z,21.81
2023-04-09T04:46:36.313Z,21.88
2023-04-09T04:47:36.332Z,21.91
2023-04-09T04:48:36.304Z,21.88
2023-04-09T04:49:36.305Z,21.78
2023-04-09T04:50:36.308Z,21.83
2023-04-09T04:51:36.308Z,21.85
2023-04-09T04:52:36.314Z,21.78
2023-04-09T04:53:36.317Z,21.81
2023-04-09T04:54:36.313Z,21.85
2023-04-09T04:55:36.329Z,21.81
2023-04-09T04:56:36.318Z,21.91
2023-04-09T04:57:36.322Z,21.83
2023-04-09T04:58:36.399Z,21.83
2023-04-09T04:59:36.323Z,21.97
2023-04-09T05:00:36.331Z,21.92
2023-04-09T05:01:36.469Z,21.91
2023-04-09T05:02:36.457Z,21.97
2023-04-09T05:03:36.436Z,21.90
2023-04-09T05:04:36.329Z,21.97
2023-04-09T05:05:36.336Z,21.85
2023-04-09T05:06:36.352Z,22.01
2023-04-09T05:07:36.343Z,21.95
2023-04-09T05:08:36.341Z,21.98
2023-04-09T05:09:36.345Z,22.07
2023-04-09T05:10:36.344Z,22.01
2023-04-09T05:11:36.346Z,22.01
2023-04-09T05:12:36.353Z,21.98
2023-04-09T05:13:36.350Z,21.97
2023-04-09T05:14:36.391Z,21.94
2023-04-09T05:15:36.358Z,21.98
2023-04-09T05:16:36.374Z,22.01
2023-04-09T05:17:36.369Z,21.88
2023-04-09T05:18:36.355Z,21.95
2023-04-09T05:19:36.361Z,21.97
2023-04-09T05:20:36.364Z,21.97
2023-04-09T05:21:36.369Z,21.99
2023-04-09T05:22:36.365Z,21.98
2023-04-09T05:23:36.373Z,22.02
2023-04-09T05:24:36.374Z,21.97
2023-04-09T05:25:36.368Z,22.02
2023-04-09T05:26:36.372Z,21.98
2023-04-09T05:27:36.377Z,22.02
2023-04-09T05:28:36.373Z,22.02
2023-04-09T05:29:36.384Z,21.94
2023-04-09T05:30:36.436Z,22.04
2023-04-09T05:31:36.395Z,22.02
2023-04-09T05:32:36.392Z,22.09
2023-04-09T05:33:36.388Z,22.04
2023-04-09T05:34:36.390Z,21.94
2023-04-09T05:35:36.428Z,21.99
2023-04-09T05:36:36.390Z,21.95
2023-04-09T05:37:36.399Z,22.06
2023-04-09T05:38:36.401Z,22.09
2023-04-09T05:39:36.402Z,21.99
2023-04-09T05:40:36.410Z,22.09
2023-04-09T05:41:36.403Z,22.04
2023-04-09T05:42:36.413Z,22.04
2023-04-09T05:43:36.551Z,22.07
2023-04-09T05:44:36.410Z,21.99
2023-04-09T05:45:36.410Z,22.02
2023-04-09T05:46:36.441Z,22.06
2023-04-09T05:47:36.444Z,21.99
2023-04-09T05:48:36.567Z,21.98
2023-04-09T05:49:36.432Z,22.04
2023-04-09T05:50:47.146Z,21.99
2023-04-09T05:51:36.421Z,22.01
2023-04-09T05:52:36.438Z,22.07
2023-04-09T05:53:36.732Z,21.98
2023-04-09T05:54:36.433Z,21.99
2023-04-09T05:55:36.442Z,22.04
2023-04-09T05:56:36.436Z,22.02
2023-04-09T05:57:36.441Z,21.95
2023-04-09T05:58:36.439Z,21.92
2023-04-09T05:59:36.444Z,22.02
2023-04-09T06:00:36.442Z,21.98
2023-04-09T06:01:36.480Z,22.01
2023-04-09T06:02:36.531Z,22.01
2023-04-09T06:03:36.584Z,21.99
2023-04-09T06:04:36.488Z,21.98
2023-04-09T06:05:36.456Z,22.07
2023-04-09T06:06:36.458Z,22.06
2023-04-09T06:07:36.470Z,22.01
2023-04-09T06:08:36.470Z,21.95
2023-04-09T06:09:36.467Z,22.01
2023-04-09T06:10:36.465Z,22.04
2023-04-09T06:11:36.464Z,21.98
2023-04-09T06:12:36.467Z,22.04
2023-04-09T06:13:36.515Z,21.97
2023-04-09T06:14:36.470Z,22.04
2023-04-09T06:15:36.589Z,22.07
2023-04-09T06:16:36.484Z,22.07
2023-04-09T06:17:36.507Z,22.10
2023-04-09T06:18:36.503Z,22.01
2023-04-09T06:19:36.487Z,21.94
2023-04-09T06:20:36.481Z,21.92
2023-04-09T06:21:36.489Z,21.98
2023-04-09T06:22:36.482Z,21.92
2023-04-09T06:23:36.489Z,22.04
2023-04-09T06:24:36.485Z,21.99
2023-04-09T06:25:36.496Z,21.99
2023-04-09T06:26:36.499Z,22.06
2023-04-09T06:27:36.495Z,22.01
2023-04-09T06:28:36.513Z,22.02
2023-04-09T06:29:36.500Z,22.09
2023-04-09T06:30:36.498Z,22.02
2023-04-09T06:31:36.574Z,22.01
2023-04-09T06:32:46.781Z,21.99
2023-04-09T06:33:36.505Z,22.02
2023-04-09T06:34:36.533Z,22.01
2023-04-09T06:35:36.526Z,22.07
2023-04-09T06:36:36.511Z,22.07
2023-04-09T06:37:36.518Z,22.02
2023-04-09T06:38:36.522Z,22.12
2023-04-09T06:39:38.594Z,22.06
2023-04-09T06:40:36.522Z,22.16
2023-04-09T06:41:36.521Z,22.14
2023-04-09T06:42:36.534Z,22.07
2023-04-09T06:43:36.523Z,22.16
2023-04-09T06:44:36.537Z,22.14
2023-04-09T06:45:36.534Z,22.14
2023-04-09T06:46:36.631Z,22.20
2023-04-09T06:47:36.559Z,22.10
2023-04-09T06:48:36.588Z,22.10
2023-04-09T06:49:36.545Z,22.12
2023-04-09T06:50:36.557Z,22.09
2023-04-09T06:51:36.545Z,22.25
2023-04-09T06:52:36.538Z,22.13
2023-04-09T06:53:36.592Z,22.10
2023-04-09T06:54:36.541Z,22.14
2023-04-09T06:55:36.552Z,22.10
2023-04-09T06:56:36.545Z,22.25
2023-04-09T06:57:36.550Z,22.19
2023-04-09T06:58:36.551Z,22.17
2023-04-09T06:59:36.562Z,22.20
2023-04-09T07:00:36.563Z,22.14
2023-04-09T07:01:36.627Z,22.13
2023-04-09T07:02:36.623Z,22.20
2023-04-09T07:03:36.873Z,22.27
2023-04-09T07:04:36.634Z,22.17
2023-04-09T07:05:36.572Z,22.22
2023-04-09T07:06:36.601Z,22.22
2023-04-09T07:07:36.566Z,22.17
2023-04-09T07:08:36.578Z,22.20
2023-04-09T07:09:36.576Z,22.17
2023-04-09T07:10:36.831Z,22.16
2023-04-09T07:11:36.577Z,22.23
2023-04-09T07:12:36.585Z,22.28
2023-04-09T07:13:36.581Z,22.19
2023-04-09T07:14:36.582Z,22.13
2023-04-09T07:15:36.591Z,22.17
2023-04-09T07:16:36.648Z,22.17
2023-04-09T07:17:36.619Z,22.17
2023-04-09T07:18:36.589Z,22.17
2023-04-09T07:19:36.592Z,22.13
2023-04-09T07:20:36.591Z,22.28
2023-04-09T07:21:36.601Z,22.22
2023-04-09T07:22:36.639Z,22.16
2023-04-09T07:23:36.754Z,22.25
2023-04-09T07:24:36.599Z,22.27
2023-04-09T07:25:36.632Z,22.32
2023-04-09T07:26:36.605Z,22.27
2023-04-09T07:27:36.614Z,22.28
2023-04-09T07:28:36.791Z,22.25
2023-04-09T07:29:36.610Z,22.19
2023-04-09T07:30:36.610Z,22.14
2023-04-09T07:31:36.649Z,22.27
2023-04-09T07:32:36.692Z,22.27
2023-04-09T07:33:36.631Z,22.27
2023-04-09T07:34:36.620Z,22.39
2023-04-09T07:35:36.656Z,22.32
2023-04-09T07:36:36.627Z,22.25
2023-04-09T07:37:36.631Z,22.34
2023-04-09T07:38:36.654Z,22.25
2023-04-09T07:39:36.637Z,22.25
2023-04-09T07:40:36.656Z,22.41
2023-04-09T07:41:36.637Z,22.32
2023-04-09T07:42:36.887Z,22.34
2023-04-09T07:43:36.647Z,22.39
2023-04-09T07:44:36.645Z,22.37
2023-04-09T07:45:36.647Z,22.34
2023-04-09T07:46:36.698Z,22.37
2023-04-09T07:47:36.689Z,22.38
2023-04-09T07:48:36.661Z,22.41
2023-04-09T07:49:36.652Z,22.41
2023-04-09T07:50:36.656Z,22.37
2023-04-09T07:51:36.658Z,22.37
2023-04-09T07:52:36.963Z,22.41
2023-04-09T07:53:36.662Z,22.32
2023-04-09T07:54:36.696Z,22.44
2023-04-09T07:55:36.668Z,22.34
2023-04-09T07:56:36.669Z,22.46
2023-04-09T07:57:36.674Z,22.52
2023-04-09T07:58:36.680Z,22.41
2023-04-09T07:59:36.713Z,22.41
2023-04-09T08:00:36.687Z,22.39
2023-04-09T08:01:36.794Z,22.41
2023-04-09T08:02:36.760Z,22.46
2023-04-09T08:03:37.136Z,22.47
2023-04-09T08:04:36.872Z,22.47
2023-04-09T08:05:36.698Z,22.38
2023-04-09T08:06:36.698Z,22.41
2023-04-09T08:07:36.695Z,22.52
2023-04-09T08:08:36.699Z,22.39
2023-04-09T08:09:36.707Z,22.41
2023-04-09T08:10:36.733Z,22.49
2023-04-09T08:11:36.703Z,22.46
2023-04-09T08:12:36.707Z,22.31
2023-04-09T08:13:36.709Z,22.46
2023-04-09T08:14:36.723Z,22.47
2023-04-09T08:15:36.710Z,22.49
2023-04-09T08:16:36.729Z,22.56
2023-04-09T08:17:36.745Z,22.53
2023-04-09T08:18:36.721Z,22.46
2023-04-09T08:19:36.736Z,22.54
2023-04-09T08:20:36.734Z,22.52
2023-04-09T08:21:36.725Z,22.59
2023-04-09T08:22:36.736Z,22.56
2023-04-09T08:23:36.735Z,22.54
2023-04-09T08:24:36.731Z,22.56
2023-04-09T08:25:36.744Z,22.64
2023-04-09T08:26:36.751Z,22.67
2023-04-09T08:27:36.736Z,22.64
2023-04-09T08:28:36.745Z,22.67
2023-04-09T08:29:36.754Z,22.67
2023-04-09T08:30:36.751Z,22.71
2023-04-09T08:31:36.773Z,22.67
2023-04-09T08:32:36.795Z,22.78
2023-04-09T08:33:36.765Z,22.78
2023-04-09T08:34:36.750Z,22.77
2023-04-09T08:35:36.759Z,22.78
2023-04-09T08:36:36.843Z,22.83
2023-04-09T08:37:36.761Z,22.87
2023-04-09T08:38:36.765Z,22.93
2023-04-09T08:39:36.789Z,22.94
2023-04-09T08:40:36.766Z,22.86
2023-04-09T08:41:36.769Z,22.96
2023-04-09T08:42:36.806Z,23.08
2023-04-09T08:43:56.114Z,23.01
2023-04-09T08:44:36.774Z,22.99
2023-04-09T08:45:36.839Z,23.05
2023-04-09T08:46:36.785Z,23.07
2023-04-09T08:47:36.922Z,23.05
2023-04-09T08:48:36.885Z,23.09
2023-04-09T08:49:36.826Z,23.11
2023-04-09T08:50:36.800Z,23.11
2023-04-09T08:51:36.794Z,23.12
2023-04-09T08:52:36.800Z,23.17
2023-04-09T08:53:36.801Z,23.22
2023-04-09T08:54:36.841Z,23.26
2023-04-09T08:55:36.804Z,23.24
2023-04-09T08:56:36.804Z,23.22
2023-04-09T08:57:36.834Z,23.05
2023-04-09T08:58:36.845Z,22.83
2023-04-09T08:59:36.843Z,22.56
2023-04-09T09:00:36.822Z,22.41
2023-04-09T09:01:36.854Z,22.27
2023-04-09T09:02:36.910Z,22.35
2023-04-09T09:03:36.912Z,22.56
2023-04-09T09:04:36.835Z,22.78
2023-04-09T09:05:36.830Z,22.92
2023-04-09T09:06:36.882Z,23.07
2023-04-09T09:07:36.888Z,23.20
2023-04-09T09:08:36.833Z,23.39
2023-04-09T09:09:36.838Z,23.79
2023-04-09T09:10:36.842Z,24.27
2023-04-09T09:11:36.862Z,24.73
2023-04-09T09:12:36.869Z,25.00
2023-04-09T09:13:36.848Z,24.95
2023-04-09T09:14:36.879Z,25.19
2023-04-09T09:34:36.970Z,23.82
2023-04-09T09:35:36.999Z,23.95
2023-04-09T09:36:36.951Z,24.02
2023-04-09T09:37:36.970Z,23.95
2023-04-09T09:38:36.968Z,24.07
2023-04-09T09:39:36.966Z,24.02
2023-04-09T09:40:36.974Z,24.13
2023-04-09T09:41:37.081Z,24.24
2023-04-09T09:42:36.982Z,24.31
2023-04-09T09:43:36.985Z,24.34
2023-04-09T09:44:36.991Z,24.34
2023-04-09T09:45:36.986Z,24.32
2023-04-09T09:46:37.101Z,24.39
2023-04-09T09:47:37.045Z,24.29
2023-04-09T09:48:37.004Z,24.34
2023-04-09T09:49:37.165Z,24.32
2023-04-09T09:50:37.046Z,24.44
2023-04-09T09:51:37.109Z,24.31
2023-04-09T09:52:37.030Z,24.27
2023-04-09T09:53:37.021Z,24.17
2023-04-09T09:54:37.026Z,24.20
2023-04-09T09:55:37.041Z,24.16
2023-04-09T09:56:37.035Z,24.16
2023-04-09T09:57:37.038Z,24.19
2023-04-09T09:58:37.035Z,24.16
2023-04-09T09:59:37.035Z,24.14
2023-04-09T10:00:37.052Z,24.05
2023-04-09T10:01:37.258Z,24.02
2023-04-09T10:02:37.185Z,24.01
2023-04-09T10:03:37.052Z,24.01
2023-04-09T10:04:37.080Z,24.05
2023-04-09T10:05:37.060Z,24.04
2023-04-09T10:06:37.138Z,24.02
2023-04-09T10:07:37.072Z,24.01
2023-04-09T10:08:37.139Z,24.02
2023-04-09T10:09:37.126Z,23.97
2023-04-09T10:10:37.083Z,23.87
2023-04-09T10:11:37.093Z,23.94
2023-04-09T10:12:37.083Z,23.83
2023-04-09T10:13:37.100Z,23.85
2023-04-09T10:14:37.100Z,23.83
2023-04-09T10:15:37.144Z,23.86
2023-04-09T10:16:37.108Z,23.83
2023-04-09T10:17:37.131Z,23.79
2023-04-09T10:18:37.106Z,23.89
2023-04-09T10:19:37.302Z,23.89
2023-04-09T10:20:37.132Z,23.89
2023-04-09T10:21:37.126Z,23.68
2023-04-09T10:22:37.150Z,23.79
2023-04-09T10:23:37.167Z,23.76
2023-04-09T10:24:37.145Z,23.75
2023-04-09T10:25:37.144Z,23.71
2023-04-09T10:26:37.144Z,23.77
2023-04-09T10:27:37.151Z,23.80
2023-04-09T10:28:37.157Z,23.76
2023-04-09T10:29:37.154Z,23.68
2023-04-09T10:30:37.163Z,23.64
2023-04-09T10:31:37.213Z,23.62
2023-04-09T10:32:37.236Z,23.61
2023-04-09T10:33:37.175Z,23.58
2023-04-09T10:34:37.173Z,23.55
2023-04-09T10:35:37.178Z,23.64
2023-04-09T10:36:37.186Z,23.58
2023-04-09T10:37:37.219Z,23.55
2023-04-09T10:38:37.212Z,23.53
2023-04-09T10:39:37.208Z,23.50
2023-04-09T10:40:37.194Z,23.55
2023-04-09T10:41:37.203Z,23.62
2023-04-09T10:42:37.213Z,23.55
2023-04-09T10:43:37.210Z,23.55
2023-04-09T10:44:37.209Z,23.52
2023-04-09T10:45:37.213Z,23.26
2023-04-09T10:46:37.333Z,23.26
2023-04-09T10:47:37.294Z,23.27
2023-04-09T10:48:37.219Z,23.27
2023-04-09T10:49:37.233Z,23.14
2023-04-09T10:50:37.231Z,22.44
2023-04-09T10:51:37.235Z,22.20
2023-04-09T10:52:37.231Z,21.72
2023-04-09T10:53:37.282Z,20.43
2023-04-09T10:54:37.308Z,21.01
2023-04-09T10:55:37.354Z,20.62
2023-04-09T10:56:37.261Z,20.33
2023-04-09T10:57:37.262Z,20.72
2023-04-09T10:58:37.246Z,20.66
2023-04-09T10:59:37.265Z,20.81
2023-04-09T11:00:37.260Z,20.90
2023-04-09T11:01:37.324Z,20.08
2023-04-09T11:02:37.551Z,20.09
2023-04-09T11:03:37.390Z,19.68
2023-04-09T11:04:37.297Z,19.70
2023-04-09T11:05:37.273Z,19.76
2023-04-09T11:06:37.280Z,20.23
2023-04-09T11:07:37.285Z,19.70
2023-04-09T11:08:37.284Z,20.13
2023-04-09T11:09:37.280Z,19.95
2023-04-09T11:10:37.309Z,19.88
2023-04-09T11:11:37.297Z,19.69
2023-04-09T11:12:37.303Z,18.91
2023-04-09T11:13:37.316Z,19.33
2023-04-09T11:14:37.292Z,18.37
2023-04-09T11:15:37.300Z,18.97
2023-04-09T11:16:37.306Z,18.39
2023-04-09T11:17:37.382Z,19.29
2023-04-09T11:18:37.535Z,19.46
2023-04-09T11:19:37.302Z,19.29
2023-04-09T11:20:37.296Z,19.11
2023-04-09T11:21:37.304Z,18.99
2023-04-09T11:22:37.299Z,19.47
2023-04-09T11:23:37.313Z,19.78
2023-04-09T11:24:37.304Z,19.58
2023-04-09T11:25:37.456Z,19.58
2023-04-09T11:26:37.338Z,19.76
2023-04-09T11:27:37.311Z,19.79
2023-04-09T11:28:37.311Z,19.72
2023-04-09T11:29:37.301Z,19.75
2023-04-09T11:30:37.303Z,19.53
2023-04-09T11:31:37.342Z,19.13
2023-04-09T11:32:37.329Z,18.84
2023-04-09T11:33:37.329Z,19.17
2023-04-09T11:34:37.313Z,19.23
2023-04-09T11:35:37.481Z,18.77
2023-04-09T11:36:37.318Z,18.59
2023-04-09T11:37:37.323Z,18.46
2023-04-09T11:38:37.320Z,17.35
2023-04-09T11:39:37.313Z,18.07
2023-04-09T11:40:37.333Z,18.47
2023-04-09T11:41:37.331Z,18.02
2023-04-09T11:42:37.338Z,18.02
2023-04-09T11:43:37.320Z,18.77
2023-04-09T11:44:37.316Z,18.73
2023-04-09T11:45:37.316Z,18.54
2023-04-09T11:46:37.367Z,18.43
2023-04-09T11:47:37.392Z,18.13
2023-04-09T11:48:37.342Z,18.36
2023-04-09T11:49:37.324Z,18.09
2023-04-09T11:50:37.374Z,17.74
2023-04-09T11:51:37.325Z,17.85
2023-04-09T11:52:37.324Z,17.63
2023-04-09T11:53:37.329Z,17.23
2023-04-09T11:54:37.329Z,17.48
2023-04-09T11:55:37.480Z,17.89
2023-04-09T11:56:37.324Z,17.44
2023-04-09T11:57:37.329Z,18.09
2023-04-09T11:58:37.383Z,18.28
2023-04-09T11:59:37.330Z,18.54
2023-04-09T12:00:37.324Z,18.79
2023-04-09T12:01:37.390Z,17.82
2023-04-09T12:02:37.528Z,17.85
2023-04-09T12:03:37.620Z,18.27
2023-04-09T12:04:37.474Z,17.59
2023-04-09T12:05:39.183Z,16.83
2023-04-09T12:06:37.324Z,17.13
2023-04-09T12:07:37.335Z,17.88
2023-04-09T12:08:37.361Z,18.46
2023-04-09T12:09:37.327Z,18.76
2023-04-09T12:10:37.333Z,18.34
2023-04-09T12:11:37.333Z,18.76
2023-04-09T12:12:37.343Z,19.10
2023-04-09T12:13:37.342Z,19.01
2023-04-09T12:14:37.358Z,19.05
2023-04-09T12:15:37.357Z,19.18
2023-04-09T12:16:37.387Z,19.31
2023-04-09T12:17:37.369Z,17.88
2023-04-09T12:18:37.330Z,17.47
2023-04-09T12:19:37.331Z,17.73
2023-04-09T12:20:37.386Z,18.34
2023-04-09T12:21:37.333Z,18.70
2023-04-09T12:22:37.322Z,18.50
2023-04-09T12:23:37.332Z,18.43
2023-04-09T12:24:37.329Z,18.12
2023-04-09T12:25:37.333Z,18.46
2023-04-09T12:26:37.332Z,18.72
2023-04-09T12:27:37.334Z,17.99
2023-04-09T12:28:37.330Z,17.62
2023-04-09T12:29:37.325Z,17.50
2023-04-09T12:30:37.342Z,17.95
2023-04-09T12:31:37.365Z,18.34
2023-04-09T12:32:37.344Z,18.47
2023-04-09T12:33:37.337Z,18.36
2023-04-09T12:34:37.322Z,18.17
2023-04-09T12:35:37.361Z,18.19
2023-04-09T12:36:37.325Z,18.22
2023-04-09T12:37:37.333Z,18.25
2023-04-09T12:38:37.321Z,18.37
2023-04-09T12:39:37.323Z,18.61
2023-04-09T12:40:37.368Z,18.80
2023-04-09T12:41:37.334Z,18.94
2023-04-09T12:42:37.334Z,18.61
2023-04-09T12:43:37.348Z,18.21
2023-04-09T12:44:37.319Z,18.33
2023-04-09T12:45:37.358Z,18.94
2023-04-09T12:46:37.355Z,19.47
2023-04-09T12:47:37.373Z,19.76
2023-04-09T12:48:37.336Z,20.03
2023-04-09T12:49:37.323Z,20.25
2023-04-09T12:50:37.334Z,20.39
2023-04-09T12:51:37.342Z,20.61
2023-04-09T12:52:37.324Z,20.62
2023-04-09T12:53:37.321Z,20.74
2023-04-09T12:54:37.331Z,20.91
2023-04-09T12:55:37.322Z,20.86
2023-04-09T12:56:37.328Z,20.93
2023-04-09T12:57:37.331Z,20.96
2023-04-09T12:58:37.324Z,21.02
2023-04-09T12:59:37.332Z,21.06
2023-04-09T13:00:37.495Z,21.02
2023-04-09T13:01:37.413Z,21.04
2023-04-09T13:02:37.656Z,21.11
2023-04-09T13:03:37.602Z,21.19
2023-04-09T13:04:37.570Z,21.17
2023-04-09T13:05:37.328Z,21.14
2023-04-09T13:06:37.336Z,21.19
2023-04-09T13:07:37.330Z,21.20
2023-04-09T13:08:37.331Z,21.23
2023-04-09T13:09:37.335Z,21.24
2023-04-09T13:10:37.338Z,21.24
2023-04-09T13:11:37.334Z,21.30